Time;durP1;ratioP1;P1;durP2;ratioP2;P2;SDS_P1;SDS_P2;PMS_P1;PMS_P2;Temp;Humidity;BMP_temperature;BMP_pressure;BME280_temperature;BME280_humidity;BME280_pressure;Samples;Min_cycle;Max_cycle;Signal;HPM_P1;HPM_P2
2022/12/09 00:00:06;;;;;;;37.58;18.02;;;;;;;1.31;100.00;100420.44;4975384;28;20074;-78
2022/12/09 00:02:31;;;;;;;34.92;18.50;;;;;;;1.28;100.00;100418.09;4957704;28;20039;-79
2022/12/09 00:04:57;;;;;;;39.85;18.73;;;;;;;1.24;100.00;100424.31;4957672;28;20037;-80
2022/12/09 00:07:22;;;;;;;37.97;18.83;;;;;;;1.21;100.00;100422.00;4955300;28;20500;-78
2022/12/09 00:09:48;;;;;;;42.80;19.80;;;;;;;1.17;100.00;100420.59;4962270;28;20043;-80
2022/12/09 00:12:13;;;;;;;37.22;18.10;;;;;;;1.16;100.00;100413.81;4946972;28;20035;-79
2022/12/09 00:14:39;;;;;;;32.97;17.90;;;;;;;1.15;100.00;100412.22;4956361;28;20050;-77
2022/12/09 00:17:07;;;;;;;43.30;17.55;;;;;;;1.06;100.00;100407.72;4952811;28;20367;-77
2022/12/09 00:19:33;;;;;;;36.72;18.73;;;;;;;1.01;100.00;100404.66;4954636;28;20047;-81
2022/12/09 00:21:59;;;;;;;37.15;19.58;;;;;;;0.97;100.00;100409.16;4948426;28;20118;-79
2022/12/09 00:24:24;;;;;;;35.28;17.55;;;;;;;0.93;100.00;100407.72;4949959;28;20047;-78
2022/12/09 00:26:50;;;;;;;35.50;18.08;;;;;;;0.91;100.00;100407.03;4955168;28;20040;-80
2022/12/09 00:29:15;;;;;;;34.50;17.77;;;;;;;0.89;100.00;100404.56;4970229;28;20039;-78
2022/12/09 00:31:41;;;;;;;33.95;18.00;;;;;;;0.87;100.00;100408.16;4953525;28;20050;-77
2022/12/09 00:34:09;;;;;;;38.75;18.55;;;;;;;0.82;100.00;100408.44;4967267;28;20075;-78
2022/12/09 00:36:36;;;;;;;39.33;18.80;;;;;;;0.81;100.00;100413.66;4968617;28;20039;-83
2022/12/09 00:39:02;;;;;;;45.47;18.67;;;;;;;0.76;100.00;100413.97;4957243;28;20105;-80
2022/12/09 00:41:29;;;;;;;41.60;19.02;;;;;;;0.71;100.00;100411.69;4949611;28;20437;-79
2022/12/09 00:43:55;;;;;;;43.00;18.85;;;;;;;0.68;100.00;100413.63;4951378;28;20401;-81
2022/12/09 00:46:20;;;;;;;37.00;18.92;;;;;;;0.64;100.00;100407.09;4948818;28;20039;-78
2022/12/09 00:48:46;;;;;;;42.70;18.10;;;;;;;0.60;100.00;100414.16;4959212;28;20039;-78
2022/12/09 00:51:18;;;;;;;36.65;17.80;;;;;;;0.56;100.00;100410.16;4953576;28;20042;-77
2022/12/09 00:53:44;;;;;;;33.50;17.95;;;;;;;0.54;100.00;100415.38;4953569;28;20035;-78
2022/12/09 00:56:09;;;;;;;33.92;17.90;;;;;;;0.52;100.00;100413.84;4960799;28;20094;-77
2022/12/09 00:58:35;;;;;;;37.45;18.17;;;;;;;0.49;100.00;100409.75;4939825;28;20134;-79
2022/12/09 01:01:02;;;;;;;39.38;18.75;;;;;;;0.48;100.00;100410.66;4965318;28;20027;-78
2022/12/09 01:03:28;;;;;;;35.85;16.65;;;;;;;0.47;100.00;100409.06;4956377;28;20062;-78
2022/12/09 01:05:54;;;;;;;38.25;17.30;;;;;;;0.44;100.00;100418.63;4955200;28;20046;-79
2022/12/09 01:08:19;;;;;;;37.42;18.20;;;;;;;0.38;100.00;100417.31;4970301;28;20068;-78
2022/12/09 01:10:45;;;;;;;35.53;18.73;;;;;;;0.37;100.00;100415.66;4953839;28;20368;-79
2022/12/09 01:13:14;;;;;;;37.13;18.23;;;;;;;0.36;100.00;100414.03;4951140;28;20039;-77
2022/12/09 01:15:40;;;;;;;38.40;19.00;;;;;;;0.36;100.00;100414.84;4955489;28;21382;-82
2022/12/09 01:18:06;;;;;;;40.38;20.08;;;;;;;0.36;100.00;100419.94;4948662;28;20039;-80
2022/12/09 01:20:33;;;;;;;42.15;19.83;;;;;;;0.36;100.00;100414.84;4947738;28;20027;-78
2022/12/09 01:23:00;;;;;;;43.55;20.30;;;;;;;0.38;100.00;100418.09;4962809;28;20488;-79
2022/12/09 01:25:26;;;;;;;44.35;19.73;;;;;;;0.39;100.00;100416.38;4949773;28;20031;-79
2022/12/09 01:27:51;;;;;;;47.33;21.90;;;;;;;0.41;100.00;100426.47;4945700;28;20047;-78
2022/12/09 01:30:17;;;;;;;43.63;21.05;;;;;;;0.41;100.00;100421.38;4964922;28;20035;-80
2022/12/09 01:32:42;;;;;;;42.72;20.65;;;;;;;0.40;100.00;100420.56;4947389;28;20493;-80
2022/12/09 01:35:08;;;;;;;39.63;20.60;;;;;;;0.42;100.00;100423.03;4949664;28;20035;-80
2022/12/09 01:37:35;;;;;;;41.25;21.08;;;;;;;0.44;100.00;100418.63;4950767;28;20729;-80
2022/12/09 01:40:05;;;;;;;39.92;20.40;;;;;;;0.45;100.00;100421.06;4955748;28;20031;-78
2022/12/09 01:42:32;;;;;;;46.35;21.20;;;;;;;0.47;100.00;100426.06;4932797;28;20035;-80
2022/12/09 01:45:20;;;;;;;50.75;20.95;;;;;;;0.47;100.00;100429.47;4949902;28;20035;-78
2022/12/09 01:48:10;;;;;;;45.80;21.52;;;;;;;0.48;100.00;100425.97;4945391;28;20777;-79
2022/12/09 01:50:38;;;;;;;45.92;22.30;;;;;;;0.49;100.00;100417.41;4945440;28;20066;-78
2022/12/09 01:53:04;;;;;;;53.90;23.42;;;;;;;0.54;100.00;100419.66;4963532;28;20043;-81
2022/12/09 01:55:32;;;;;;;52.13;23.40;;;;;;;0.57;100.00;100420.28;4951938;28;21293;-77
2022/12/09 01:57:57;;;;;;;49.55;22.65;;;;;;;0.55;100.00;100421.31;4948960;28;20043;-79
2022/12/09 02:00:23;;;;;;;48.35;21.08;;;;;;;0.55;100.00;100424.66;4985700;28;20035;-79
2022/12/09 02:02:53;;;;;;;46.35;20.92;;;;;;;0.56;100.00;100413.53;4950227;28;20035;-80
2022/12/09 02:05:20;;;;;;;50.25;22.15;;;;;;;0.57;100.00;100414.38;4951905;28;20085;-79
2022/12/09 02:07:51;;;;;;;;;;;;;;;0.61;100.00;100409.88;4946637;28;20504;-81
2022/12/09 02:10:18;;;;;;;56.70;23.70;;;;;;;0.59;100.00;100409.97;4950007;28;19962;-79
2022/12/09 02:13:20;;;;;;;50.15;23.63;;;;;;;0.65;100.00;100417.22;4936009;28;20042;-78
2022/12/09 02:15:52;;;;;;;54.97;23.23;;;;;;;0.63;100.00;100408.84;4955683;28;20663;-78
2022/12/09 02:18:37;;;;;;;51.28;23.25;;;;;;;0.68;100.00;100406.81;4946716;28;20043;-79
2022/12/09 02:21:15;;;;;;;52.08;22.83;;;;;;;0.65;100.00;100406.19;4935096;28;20031;-78
2022/12/09 02:23:49;;;;;;;50.70;22.00;;;;;;;0.62;100.00;100404.66;4937159;28;20047;-78
2022/12/09 02:26:20;;;;;;;48.65;22.88;;;;;;;0.62;100.00;100399.53;4951239;28;20027;-82
2022/12/09 02:29:08;;;;;;;51.90;22.50;;;;;;;0.68;100.00;100406.81;4965427;28;20047;-79
2022/12/09 02:31:45;;;;;;;50.25;22.85;;;;;;;0.65;100.00;100401.09;4951388;28;20042;-79
2022/12/09 02:34:21;;;;;;;53.20;24.35;;;;;;;0.62;100.00;100401.28;4946651;28;20054;-81
2022/12/09 02:36:55;;;;;;;46.95;21.88;;;;;;;0.61;100.00;100394.56;4964852;28;20051;-79
2022/12/09 02:39:31;;;;;;;50.72;22.95;;;;;;;0.61;100.00;100395.38;4962925;28;20035;-80
2022/12/09 02:42:12;;;;;;;46.08;21.80;;;;;;;0.63;100.00;100395.28;4965774;28;20039;-78
2022/12/09 02:44:39;;;;;;;51.35;22.95;;;;;;;0.65;100.00;100398.53;4946271;28;20493;-76
2022/12/09 02:47:11;;;;;;;44.95;20.95;;;;;;;0.64;100.00;100394.34;4950711;28;20027;-79
2022/12/09 02:49:40;;;;;;;47.15;21.88;;;;;;;0.62;100.00;100391.88;4949987;28;20050;-79
2022/12/09 02:52:06;;;;;;;43.58;20.45;;;;;;;0.62;100.00;100391.06;4946914;28;20311;-79
2022/12/09 02:54:35;;;;;;;43.75;20.90;;;;;;;0.58;100.00;100388.75;4949904;28;20043;-78
2022/12/09 02:57:06;;;;;;;47.13;21.67;;;;;;;0.56;100.00;100393.13;4964758;28;20031;-79
2022/12/09 02:59:31;;;;;;;45.45;21.25;;;;;;;0.54;100.00;100389.84;4968028;28;20423;-80
2022/12/09 03:02:09;;;;;;;44.78;21.15;;;;;;;0.54;100.00;100384.75;4944230;28;20035;-79
2022/12/09 03:04:38;;;;;;;51.58;23.63;;;;;;;0.53;100.00;100388.22;4949062;28;20561;-78
2022/12/09 03:07:19;;;;;;;45.33;21.48;;;;;;;0.53;100.00;100389.97;4952771;28;20040;-81
2022/12/09 03:09:51;;;;;;;42.30;22.40;;;;;;;0.48;100.00;100382.59;4949238;28;20082;-77
2022/12/09 03:12:19;;;;;;;47.88;20.85;;;;;;;0.47;100.00;100381.00;4949845;28;20032;-80
2022/12/09 03:14:53;;;;;;;48.00;21.52;;;;;;;0.49;100.00;100378.31;4948437;28;20066;-81
2022/12/09 03:17:33;;;;;;;45.45;22.42;;;;;;;0.71;100.00;100377.72;4977988;28;20039;-81
2022/12/09 03:20:06;;;;;;;46.75;21.73;;;;;;;0.69;100.00;100380.34;4963838;28;20051;-80
2022/12/09 03:22:34;;;;;;;42.92;21.20;;;;;;;0.63;100.00;100377.41;4949486;28;20539;-79
2022/12/09 03:25:14;;;;;;;48.92;21.75;;;;;;;0.57;100.00;100383.75;4952670;28;20074;-78
2022/12/09 03:27:50;;;;;;;44.42;21.67;;;;;;;0.49;100.00;100378.31;4979023;28;20539;-78
2022/12/09 03:30:16;;;;;;;45.40;21.27;;;;;;;0.46;100.00;100374.22;4950981;28;20062;-78
2022/12/09 03:32:44;;;;;;;50.88;22.42;;;;;;;0.44;100.00;100376.06;4976029;28;20051;-79
2022/12/09 03:35:20;;;;;;;52.03;22.70;;;;;;;0.43;100.00;100371.88;4953007;28;20046;-79
2022/12/09 03:37:48;;;;;;;45.67;21.98;;;;;;;0.44;100.00;100376.06;4944888;28;20122;-78
2022/12/09 03:40:17;;;;;;;47.75;21.65;;;;;;;0.45;100.00;100374.34;4944642;28;20045;-78
2022/12/09 03:43:06;;;;;;;49.47;22.35;;;;;;;0.47;100.00;100367.38;4953266;28;20044;-79
2022/12/09 03:45:32;;;;;;;47.25;21.58;;;;;;;0.50;100.00;100372.31;4954586;28;20031;-79
2022/12/09 03:47:58;;;;;;;45.03;21.65;;;;;;;0.50;100.00;100365.47;4951767;28;20051;-78
2022/12/09 03:50:27;;;;;;;54.50;23.50;;;;;;;0.54;100.00;100366.06;4956800;28;20035;-78
2022/12/09 03:53:05;;;;;;;49.75;21.58;;;;;;;0.51;100.00;100369.66;4954909;28;20046;-77
2022/12/09 03:55:43;;;;;;;57.15;21.75;;;;;;;0.54;100.00;100361.78;4957725;28;20080;-78
2022/12/09 03:58:12;;;;;;;50.75;21.67;;;;;;;0.56;100.00;100365.03;4967310;28;20048;-79
2022/12/09 04:00:38;;;;;;;50.65;21.52;;;;;;;0.61;100.00;100358.84;4954409;28;20508;-79
2022/12/09 04:03:05;;;;;;;51.08;21.55;;;;;;;0.57;100.00;100361.59;4934249;28;20066;-79
2022/12/09 04:05:31;;;;;;;48.17;21.73;;;;;;;0.62;100.00;100360.47;4946878;28;20694;-77
2022/12/09 04:07:57;;;;;;;44.97;20.52;;;;;;;0.69;100.00;100359.94;4946145;28;20083;-78
2022/12/09 04:10:22;;;;;;;48.20;21.25;;;;;;;0.63;100.00;100357.00;4951937;28;20258;-78
2022/12/09 04:12:48;;;;;;;48.78;21.83;;;;;;;0.60;100.00;100355.44;4958965;28;20055;-79
2022/12/09 04:15:13;;;;;;;55.17;25.15;;;;;;;0.59;100.00;100356.38;4958724;28;20780;-79
2022/12/09 04:17:38;;;;;;;49.97;24.15;;;;;;;0.64;100.00;100358.63;4969201;28;20038;-81
2022/12/09 04:20:05;;;;;;;55.70;24.42;;;;;;;0.65;100.00;100357.72;4955257;28;20051;-81
2022/12/09 04:22:31;;;;;;;57.33;25.23;;;;;;;0.66;100.00;100355.06;4970797;28;20064;-80
2022/12/09 04:24:56;;;;;;;59.20;27.70;;;;;;;0.66;100.00;100351.66;4954162;28;20485;-78
2022/12/09 04:27:21;;;;;;;53.92;24.42;;;;;;;0.67;100.00;100354.13;4947677;28;20023;-78
2022/12/09 04:29:47;;;;;;;51.10;22.77;;;;;;;0.70;100.00;100358.22;4936326;28;20704;-79
2022/12/09 04:32:12;;;;;;;42.17;19.52;;;;;;;0.69;100.00;100348.94;4956342;28;20034;-78
2022/12/09 04:34:38;;;;;;;50.78;21.67;;;;;;;0.67;100.00;100353.31;4954173;28;20404;-79
2022/12/09 04:37:04;;;;;;;45.22;22.15;;;;;;;0.68;100.00;100350.66;4968850;28;20047;-78
2022/12/09 04:39:30;;;;;;;51.42;21.00;;;;;;;0.70;100.00;100350.56;4955637;28;20034;-79
2022/12/09 04:41:55;;;;;;;47.47;20.95;;;;;;;0.70;100.00;100345.47;4939302;28;20038;-79
2022/12/09 04:44:21;;;;;;;53.97;21.83;;;;;;;0.73;100.00;100340.13;4952022;28;20110;-79
2022/12/09 04:46:47;;;;;;;42.35;19.70;;;;;;;0.71;100.00;100344.53;4955949;28;20034;-79
2022/12/09 04:49:12;;;;;;;42.83;20.23;;;;;;;0.72;100.00;100346.19;4958432;28;20039;-79
2022/12/09 04:51:38;;;;;;;51.45;21.02;;;;;;;0.72;100.00;100344.44;4954955;28;20487;-78
2022/12/09 04:54:03;;;;;;;48.42;21.75;;;;;;;0.74;100.00;100346.88;4951933;28;20527;-79
2022/12/09 04:56:42;;;;;;;45.83;21.23;;;;;;;0.82;100.00;100338.72;4954693;28;20035;-78
2022/12/09 04:59:07;;;;;;;52.80;21.98;;;;;;;0.77;100.00;100341.56;4981735;28;20146;-78
2022/12/09 05:01:33;;;;;;;46.40;20.25;;;;;;;0.75;100.00;100348.50;4952576;28;20054;-78
2022/12/09 05:03:58;;;;;;;47.33;21.23;;;;;;;0.75;100.00;100345.94;4955900;28;20035;-78
2022/12/09 05:06:24;;;;;;;51.80;21.98;;;;;;;0.77;100.00;100346.66;4953155;28;20088;-80
2022/12/09 05:08:50;;;;;;;49.75;20.90;;;;;;;0.80;100.00;100348.22;4955098;28;20057;-81
2022/12/09 05:11:18;;;;;;;54.88;22.83;;;;;;;0.82;100.00;100349.72;4947150;28;20169;-78
2022/12/09 05:13:43;;;;;;;48.80;21.05;;;;;;;0.78;100.00;100350.84;4957090;28;20062;-79
2022/12/09 05:16:12;;;;;;;38.53;18.70;;;;;;;0.77;100.00;100350.06;4954300;28;20035;-78
2022/12/09 05:18:38;;;;;;;43.70;21.13;;;;;;;0.77;100.00;100344.09;4953384;28;20039;-79
2022/12/09 05:21:05;;;;;;;46.28;20.33;;;;;;;0.76;100.00;100340.75;4984749;28;21770;-78
2022/12/09 05:23:31;;;;;;;44.40;20.27;;;;;;;0.79;100.00;100342.25;4956468;28;20053;-80
2022/12/09 05:25:56;;;;;;;47.17;20.40;;;;;;;0.80;100.00;100349.03;4949704;28;20039;-77
2022/12/09 05:28:22;;;;;;;49.55;21.15;;;;;;;0.80;100.00;100345.66;4951798;28;20042;-80
2022/12/09 05:30:47;;;;;;;42.33;17.13;;;;;;;0.79;100.00;100344.81;4954099;28;20031;-78
2022/12/09 05:33:14;;;;;;;53.45;21.23;;;;;;;0.80;100.00;100338.81;4949882;28;20039;-78
2022/12/09 05:35:43;;;;;;;50.33;19.23;;;;;;;0.79;100.00;100329.50;4952959;28;20046;-80
2022/12/09 05:38:09;;;;;;;45.00;20.15;;;;;;;0.80;100.00;100331.16;4945778;28;20500;-78
2022/12/09 05:40:35;;;;;;;48.15;20.48;;;;;;;0.83;100.00;100337.78;4947173;28;20042;-78
2022/12/09 05:43:01;;;;;;;40.97;19.92;;;;;;;0.83;100.00;100333.50;4948912;28;20047;-77
2022/12/09 05:45:26;;;;;;;48.42;20.98;;;;;;;0.85;100.00;100335.94;4953013;28;20419;-77
2022/12/09 05:47:52;;;;;;;46.22;19.23;;;;;;;0.81;100.00;100330.25;4949822;28;20035;-81
2022/12/09 05:50:17;;;;;;;46.83;19.48;;;;;;;0.80;100.00;100330.34;4953039;28;20035;-79
2022/12/09 05:52:43;;;;;;;41.38;18.98;;;;;;;0.80;100.00;100328.59;4949877;28;20067;-79
2022/12/09 05:55:09;;;;;;;47.33;21.27;;;;;;;0.84;100.00;100334.31;4965748;28;20058;-81
2022/12/09 05:57:35;;;;;;;48.33;21.55;;;;;;;0.81;100.00;100330.25;4954845;28;20027;-78
2022/12/09 06:00:01;;;;;;;46.03;19.83;;;;;;;0.85;100.00;100326.56;4956650;28;20039;-78
2022/12/09 06:02:26;;;;;;;46.38;20.58;;;;;;;0.86;100.00;100327.34;4962787;28;20035;-85
2022/12/09 06:04:52;;;;;;;39.80;18.55;;;;;;;0.83;100.00;100325.84;4952020;28;20485;-81
2022/12/09 06:07:17;;;;;;;47.22;19.58;;;;;;;0.80;100.00;100323.50;4952502;28;20034;-78
2022/12/09 06:09:43;;;;;;;44.05;19.42;;;;;;;0.80;100.00;100320.13;4948806;28;20054;-79
2022/12/09 06:12:09;;;;;;;41.97;19.25;;;;;;;0.78;100.00;100320.22;4951871;28;20026;-81
2022/12/09 06:14:35;;;;;;;43.90;19.23;;;;;;;0.84;100.00;100322.34;4954189;28;20425;-80
2022/12/09 06:17:01;;;;;;;40.97;19.20;;;;;;;0.81;100.00;100319.19;4956633;28;20035;-79
2022/12/09 06:19:26;;;;;;;38.05;18.35;;;;;;;0.80;100.00;100317.56;4954057;28;20035;-77
2022/12/09 06:21:51;;;;;;;39.58;18.40;;;;;;;0.79;100.00;100314.19;4955494;28;20039;-84
2022/12/09 06:24:17;;;;;;;40.92;18.60;;;;;;;0.78;100.00;100310.81;4951364;28;20043;-79
2022/12/09 06:26:42;;;;;;;42.25;18.55;;;;;;;0.78;100.00;100318.47;4965811;28;20042;-79
2022/12/09 06:29:08;;;;;;;41.17;19.08;;;;;;;0.80;100.00;100309.91;4947540;28;20969;-80
2022/12/09 06:31:34;;;;;;;49.17;23.23;;;;;;;0.80;100.00;100312.47;4956757;28;20129;-83
2022/12/09 06:33:59;;;;;;;44.20;20.73;;;;;;;0.79;100.00;100311.63;4953871;28;20058;-79
2022/12/09 06:36:27;;;;;;;38.67;17.83;;;;;;;0.81;100.00;100308.97;4966802;28;20036;-80
2022/12/09 06:38:54;;;;;;;39.72;18.20;;;;;;;0.78;100.00;100310.00;4953961;28;20116;-79
2022/12/09 06:41:19;;;;;;;46.10;19.60;;;;;;;0.75;100.00;100305.09;4954533;28;20063;-78
2022/12/09 06:43:45;;;;;;;43.22;18.42;;;;;;;0.74;100.00;100313.72;4950847;28;21836;-81
2022/12/09 06:46:19;;;;;;;38.80;18.42;;;;;;;0.74;100.00;100321.38;4950086;28;20051;-79
2022/12/09 06:48:45;;;;;;;37.60;18.38;;;;;;;0.74;100.00;100322.16;4953445;28;20079;-79
2022/12/09 06:51:11;;;;;;;38.95;17.30;;;;;;;0.75;100.00;100311.06;4949469;28;20032;-78
2022/12/09 06:53:37;;;;;;;44.33;17.88;;;;;;;0.75;100.00;100320.44;4951869;28;20050;-78
2022/12/09 06:56:04;;;;;;;38.90;19.80;;;;;;;0.73;100.00;100323.06;4954050;28;20073;-80
2022/12/09 06:58:30;;;;;;;38.17;18.13;;;;;;;0.75;100.00;100325.53;4952388;28;20545;-77
2022/12/09 07:01:04;;;;;;;46.22;19.23;;;;;;;0.77;100.00;100321.97;4949250;28;20044;-79
2022/12/09 07:03:29;;;;;;;44.88;18.73;;;;;;;0.75;100.00;100323.81;4946412;28;20520;-78
2022/12/09 07:05:55;;;;;;;39.33;17.00;;;;;;;0.75;100.00;100325.53;4955267;28;20035;-79
2022/12/09 07:08:20;;;;;;;44.83;19.13;;;;;;;0.75;100.00;100326.38;4948067;28;20488;-79
2022/12/09 07:10:45;;;;;;;41.13;18.85;;;;;;;0.74;100.00;100331.56;4955656;28;20044;-77
2022/12/09 07:13:11;;;;;;;43.80;18.90;;;;;;;0.80;100.00;100328.59;4955761;28;20039;-82
2022/12/09 07:15:36;;;;;;;42.33;18.90;;;;;;;0.75;100.00;100323.81;4954773;28;20035;-79
2022/12/09 07:18:02;;;;;;;38.08;17.55;;;;;;;0.77;100.00;100324.53;4952195;28;20039;-79
2022/12/09 07:20:27;;;;;;;46.00;17.00;;;;;;;0.74;100.00;100323.91;4960863;28;20050;-77
2022/12/09 07:22:53;;;;;;;37.78;17.20;;;;;;;0.74;100.00;100336.69;4950326;28;20055;-79
2022/12/09 07:25:18;;;;;;;44.40;19.02;;;;;;;0.74;100.00;100337.47;4959657;28;20385;-78
2022/12/09 07:27:44;;;;;;;37.90;17.98;;;;;;;0.78;100.00;100335.53;4950863;28;20046;-81
2022/12/09 07:30:10;;;;;;;45.95;17.88;;;;;;;0.76;100.00;100338.19;4962653;28;20038;-83
2022/12/09 07:32:35;;;;;;;39.53;18.70;;;;;;;0.75;100.00;100341.69;4963417;28;20046;-77
2022/12/09 07:35:00;;;;;;;39.65;18.25;;;;;;;0.74;100.00;100334.94;4951132;28;20036;-80
2022/12/09 07:37:26;;;;;;;36.50;17.15;;;;;;;0.74;100.00;100337.47;4987231;28;20268;-81
2022/12/09 07:39:51;;;;;;;39.47;17.63;;;;;;;0.76;100.00;100338.19;4952965;28;20042;-82
2022/12/09 07:42:17;;;;;;;37.20;17.55;;;;;;;0.77;100.00;100339.00;4967957;28;20055;-78
2022/12/09 07:44:50;;;;;;;41.25;18.33;;;;;;;0.77;100.00;100337.28;4953389;28;20043;-78
2022/12/09 07:47:16;;;;;;;42.03;18.75;;;;;;;0.78;100.00;100346.56;4955872;28;20050;-79
2022/12/09 07:49:41;;;;;;;39.42;17.48;;;;;;;0.79;100.00;100347.38;4960326;28;20095;-78
2022/12/09 07:52:07;;;;;;;40.65;17.13;;;;;;;0.81;100.00;100342.16;4956302;28;20034;-79
2022/12/09 07:54:33;;;;;;;40.13;17.85;;;;;;;0.92;100.00;100350.75;4951163;28;20125;-78
2022/12/09 07:56:58;;;;;;;44.15;17.85;;;;;;;0.87;100.00;100350.25;4956699;28;20046;-83
2022/12/09 07:59:23;;;;;;;39.05;17.33;;;;;;;0.84;100.00;100352.19;4956953;28;20038;-78
2022/12/09 08:01:49;;;;;;;39.97;17.83;;;;;;;0.84;100.00;100360.66;4954118;28;20480;-80
2022/12/09 08:04:14;;;;;;;38.05;17.05;;;;;;;0.83;100.00;100363.28;4952627;28;20050;-82
2022/12/09 08:06:40;;;;;;;36.58;17.13;;;;;;;0.87;100.00;100367.31;4954966;28;20036;-78
2022/12/09 08:09:09;;;;;;;40.67;16.88;;;;;;;0.87;100.00;100367.31;4969043;28;20527;-78
2022/12/09 08:11:35;;;;;;;38.25;17.17;;;;;;;0.89;100.00;100365.47;4948753;28;20085;-80
2022/12/09 08:14:05;;;;;;;40.47;19.00;;;;;;;0.91;100.00;100368.72;4955755;28;20047;-77
2022/12/09 08:16:30;;;;;;;47.78;17.75;;;;;;;0.93;100.00;100366.88;4953897;28;20094;-79
2022/12/09 08:18:56;;;;;;;41.88;18.88;;;;;;;0.98;100.00;100375.06;4935219;28;20040;-79
2022/12/09 08:21:25;;;;;;;48.22;21.13;;;;;;;1.01;100.00;100377.38;4941565;28;20067;-81
2022/12/09 08:23:51;;;;;;;43.38;18.95;;;;;;;1.00;100.00;100368.09;4951586;28;20039;-79
2022/12/09 08:26:20;;;;;;;51.63;20.98;;;;;;;1.07;100.00;100368.47;4953425;28;20055;-80
2022/12/09 08:28:46;;;;;;;48.67;21.80;;;;;;;1.08;100.00;100372.69;4959681;28;20466;-81
2022/12/09 08:31:15;;;;;;;42.95;20.55;;;;;;;1.06;100.00;100371.97;4956607;28;20042;-79
2022/12/09 08:33:40;;;;;;;48.22;20.27;;;;;;;1.04;100.00;100371.25;4952119;28;20068;-78
2022/12/09 08:36:13;;;;;;;46.92;21.15;;;;;;;1.03;100.00;100364.50;4956889;28;20038;-82
2022/12/09 08:38:39;;;;;;;44.80;20.27;;;;;;;1.03;100.00;100372.16;4939574;28;20039;-79
2022/12/09 08:41:33;;;;;;;46.83;19.92;;;;;;;1.03;100.00;100374.72;4956757;28;20031;-78
2022/12/09 08:44:06;;;;;;;47.10;21.55;;;;;;;1.08;100.00;100367.56;4956725;28;20070;-78
2022/12/09 08:46:32;;;;;;;;;;;;;;;1.08;100.00;100367.56;4951075;28;20035;-81
2022/12/09 08:49:00;;;;;;;54.97;20.65;;;;;;;1.06;100.00;100361.75;4962092;28;20415;-78
2022/12/09 08:51:27;;;;;;;45.58;20.85;;;;;;;1.03;100.00;100365.31;4951808;28;20027;-80
2022/12/09 08:53:53;;;;;;;41.72;20.23;;;;;;;1.06;100.00;100365.13;4958851;28;20135;-78
2022/12/09 08:56:18;;;;;;;47.20;20.45;;;;;;;1.05;100.00;100366.03;4947533;28;20043;-79
2022/12/09 08:58:45;;;;;;;44.58;19.25;;;;;;;1.08;100.00;100367.56;4953394;28;20059;-79
2022/12/09 09:01:16;;;;;;;40.83;19.27;;;;;;;1.09;100.00;100364.91;4948251;28;20046;-79
2022/12/09 09:03:43;;;;;;;41.10;18.92;;;;;;;1.11;100.00;100369.91;4957967;28;20094;-78
2022/12/09 09:06:08;;;;;;;45.45;18.67;;;;;;;1.10;100.00;100371.66;4947777;28;20031;-82
2022/12/09 09:08:34;;;;;;;48.10;19.50;;;;;;;1.09;100.00;100367.47;4954102;28;20089;-79
2022/12/09 09:11:00;;;;;;;38.33;18.02;;;;;;;1.15;100.00;100366.25;4949018;28;21059;-79
2022/12/09 09:13:26;;;;;;;44.08;19.25;;;;;;;1.19;100.00;100367.66;4958478;28;20047;-78
2022/12/09 09:15:51;;;;;;;44.45;18.02;;;;;;;1.25;100.00;100362.09;4943270;28;20047;-78
2022/12/09 09:18:16;;;;;;;37.03;18.25;;;;;;;1.28;100.00;100366.19;4950847;28;20039;-79
2022/12/09 09:20:46;;;;;;;36.83;16.60;;;;;;;1.34;100.00;100371.69;4950947;28;20039;-78
2022/12/09 09:23:15;;;;;;;36.83;16.67;;;;;;;1.40;100.00;100373.00;4954439;28;20058;-80
2022/12/09 09:25:41;;;;;;;34.33;15.98;;;;;;;1.48;100.00;100382.69;4953510;28;20062;-79
2022/12/09 09:28:07;;;;;;;37.67;16.35;;;;;;;1.53;99.89;100375.53;4957825;28;20032;-77
2022/12/09 09:30:33;;;;;;;40.03;15.63;;;;;;;1.51;99.03;100378.19;4951669;28;20460;-78
2022/12/09 09:32:58;;;;;;;37.00;17.45;;;;;;;1.66;98.82;100363.50;4954665;28;20043;-78
2022/12/09 09:35:24;;;;;;;48.15;19.95;;;;;;;1.66;97.88;100375.47;4936295;29;20035;-78
2022/12/09 09:37:50;;;;;;;44.13;18.73;;;;;;;1.63;97.89;100378.25;4963421;28;20146;-80
2022/12/09 09:40:16;;;;;;;47.92;19.10;;;;;;;1.63;98.04;100371.38;4952094;28;20172;-78
2022/12/09 09:42:48;;;;;;;34.60;16.05;;;;;;;1.64;97.90;100378.13;4949223;28;20832;-80
2022/12/09 09:45:18;;;;;;;33.00;15.90;;;;;;;1.63;98.26;100379.06;4952497;28;20055;-78
2022/12/09 09:47:58;;;;;;;37.20;16.23;;;;;;;1.62;97.76;100380.00;4949846;28;20042;-79
2022/12/09 09:50:29;;;;;;;33.40;14.93;;;;;;;1.67;97.30;100382.22;4935742;28;20031;-78
2022/12/09 09:52:56;;;;;;;32.83;14.40;;;;;;;1.69;97.53;100380.34;4934323;28;20076;-81
2022/12/09 09:55:40;;;;;;;32.90;15.77;;;;;;;1.72;97.25;100367.38;4946923;28;20031;-79
2022/12/09 09:58:16;;;;;;;40.75;15.10;;;;;;;1.77;97.55;100379.81;4960927;28;20042;-80
2022/12/09 10:01:01;;;;;;;37.17;16.30;;;;;;;1.81;97.41;100368.44;4950407;28;20457;-79
2022/12/09 10:03:53;;;;;;;30.45;14.07;;;;;;;1.80;97.32;100369.38;4966605;28;20523;-78
2022/12/09 10:06:33;;;;;;;36.42;17.35;;;;;;;1.83;97.29;100366.56;4949632;28;20043;-83
2022/12/09 10:09:03;;;;;;;34.15;13.55;;;;;;;1.81;96.20;100363.31;4958708;28;20592;-80
2022/12/09 10:11:50;;;;;;;32.63;13.85;;;;;;;1.86;95.56;100369.72;4952354;28;20039;-78
2022/12/09 10:14:33;;;;;;;30.65;13.68;;;;;;;1.91;94.76;100375.34;4957393;28;20043;-78
2022/12/09 10:17:14;;;;;;;28.30;13.05;;;;;;;1.91;94.15;100371.97;4946394;28;20043;-77
2022/12/09 10:19:47;;;;;;;30.15;12.88;;;;;;;1.89;93.62;100366.97;4955258;28;20098;-78
2022/12/09 10:22:27;;;;;;;30.80;12.52;;;;;;;1.94;93.39;100367.47;4964539;28;20027;-79
2022/12/09 10:24:55;;;;;;;32.33;13.40;;;;;;;2.03;93.62;100357.47;4945075;28;20624;-80
2022/12/09 10:27:34;;;;;;;28.35;12.40;;;;;;;2.05;92.76;100358.19;4934193;28;20038;-78
2022/12/09 10:30:10;;;;;;;30.35;13.25;;;;;;;2.06;91.74;100357.28;4933717;28;20035;-79
2022/12/09 10:32:41;;;;;;;30.40;12.57;;;;;;;2.09;91.04;100359.59;4947080;28;20054;-78
2022/12/09 10:35:17;;;;;;;37.50;14.38;;;;;;;2.06;90.79;100360.63;4947794;28;20027;-77
2022/12/09 10:37:43;;;;;;;32.95;13.80;;;;;;;2.00;90.82;100358.53;4935774;28;20042;-79
2022/12/09 10:40:08;;;;;;;31.13;13.77;;;;;;;1.97;90.95;100361.28;4936201;28;20069;-77
2022/12/09 10:45:30;;;;;;;30.50;14.10;;;;;;;2.15;91.55;100348.94;4947520;28;20824;-77
2022/12/09 10:47:56;;;;;;;28.95;14.27;;;;;;;2.18;91.64;100351.25;4944206;28;20039;-78
2022/12/09 10:50:30;;;;;;;33.88;13.93;;;;;;;2.26;91.11;100345.56;4952936;28;20121;-78
2022/12/09 10:52:57;;;;;;;31.65;13.85;;;;;;;2.27;90.36;100344.66;4950246;28;20039;-79
2022/12/09 10:55:32;;;;;;;31.65;13.45;;;;;;;2.31;90.47;100340.91;4952801;28;20327;-77
2022/12/09 10:58:16;;;;;;;37.05;13.90;;;;;;;2.39;90.22;100337.78;4951977;28;20095;-78
2022/12/09 11:00:42;;;;;;;31.55;13.10;;;;;;;2.53;89.36;100338.41;4951417;28;20039;-78
2022/12/09 11:03:29;;;;;;;24.52;11.48;;;;;;;2.66;87.87;100335.72;4947131;28;22235;-78
2022/12/09 11:05:58;;;;;;;30.75;12.93;;;;;;;2.63;86.73;100330.03;4949953;28;20070;-79
2022/12/09 11:08:23;;;;;;;24.15;12.65;;;;;;;2.64;86.71;100334.22;4977378;28;20059;-79
2022/12/09 11:10:49;;;;;;;28.38;12.50;;;;;;;2.64;86.48;100329.91;4966693;28;20073;-78
2022/12/09 11:13:18;;;;;;;33.30;13.02;;;;;;;2.65;85.96;100325.59;4950701;28;20046;-79
2022/12/09 11:15:50;;;;;;;23.98;12.50;;;;;;;2.62;85.11;100330.94;4951504;28;20035;-79
2022/12/09 11:18:28;;;;;;;28.25;12.85;;;;;;;2.45;84.96;100333.03;4979205;28;20058;-78
2022/12/09 11:20:56;;;;;;;34.78;13.30;;;;;;;2.56;85.55;100333.97;4946761;28;20058;-78